createdAt,value
2018-12-02T00:01:14.574Z,100042.02
2018-12-02T00:03:44.628Z,100040.13
2018-12-02T00:06:15.475Z,100030.63
2018-12-02T00:08:45.633Z,100029.80
2018-12-02T00:11:15.782Z,100024.95
2018-12-02T00:13:47.582Z,100026.59
2018-12-02T00:16:19.087Z,100022.64
2018-12-02T00:18:49.429Z,100022.35
2018-12-02T00:21:20.929Z,100021.51
2018-12-02T00:23:51.689Z,100013.98
2018-12-02T00:26:23.114Z,100014.05
2018-12-02T00:28:54.253Z,100009.27
2018-12-02T00:31:24.920Z,99999.69
2018-12-02T00:33:55.462Z,99991.50
2018-12-02T00:36:26.499Z,99995.14
2018-12-02T00:38:57.283Z,99991.95
2018-12-02T00:41:28.173Z,99991.33
2018-12-02T00:43:58.814Z,99980.08
2018-12-02T00:46:29.026Z,99983.95
2018-12-02T00:48:59.897Z,99977.58
2018-12-02T00:51:30.852Z,99974.39
2018-12-02T00:54:01.773Z,99972.72
2018-12-02T00:56:35.319Z,99971.72
2018-12-02T00:59:05.429Z,99970.44
2018-12-02T01:01:36.201Z,99967.94
2018-12-02T01:04:06.352Z,99959.27
2018-12-02T01:06:37.830Z,99953.80
2018-12-02T01:09:09.231Z,99956.69
2018-12-02T01:11:39.366Z,99945.02
2018-12-02T01:14:10.198Z,99952.64
2018-12-02T01:16:40.421Z,99949.23
2018-12-02T01:19:10.778Z,99947.61
2018-12-02T01:21:42.812Z,99945.05
2018-12-02T01:24:14.081Z,99942.77
2018-12-02T01:26:45.446Z,99936.23
2018-12-02T01:29:15.403Z,99933.81
2018-12-02T01:31:45.649Z,99931.27
2018-12-02T01:34:16.896Z,99928.09
2018-12-02T01:36:47.170Z,99927.48
2018-12-02T01:39:18.803Z,99919.04
2018-12-02T01:41:49.518Z,99917.22
2018-12-02T01:44:20.691Z,99918.73
2018-12-02T01:46:51.422Z,99909.82
2018-12-02T01:49:22.062Z,99909.47
2018-12-02T01:51:52.902Z,99901.63
2018-12-02T01:54:23.841Z,99904.73
2018-12-02T01:56:54.710Z,99896.08
2018-12-02T01:59:25.313Z,99896.84
2018-12-02T02:01:56.696Z,99903.91
2018-12-02T02:04:26.813Z,99895.64
2018-12-02T02:06:57.321Z,99899.82
2018-12-02T02:09:28.620Z,99897.06
2018-12-02T02:11:58.675Z,99885.90
2018-12-02T02:14:29.224Z,99883.84
2018-12-02T02:17:00.342Z,99887.80
2018-12-02T02:19:30.931Z,99876.89
2018-12-02T02:22:02.084Z,99877.89
2018-12-02T02:24:33.225Z,99868.41
2018-12-02T02:27:04.481Z,99863.11
2018-12-02T02:29:36.230Z,99858.45
2018-12-02T02:32:07.095Z,99852.00
2018-12-02T02:34:37.894Z,99851.70
2018-12-02T02:37:08.001Z,99837.86
2018-12-02T02:39:38.710Z,99835.84
2018-12-02T02:42:09.612Z,99845.67
2018-12-02T02:44:39.651Z,99836.80
2018-12-02T02:47:10.537Z,99837.32
2018-12-02T02:49:41.124Z,99840.16
2018-12-02T02:52:11.280Z,99828.81
2018-12-02T02:54:42.773Z,99811.55
2018-12-02T02:57:13.003Z,99799.53
2018-12-02T02:59:43.593Z,99798.06
2018-12-02T03:02:14.382Z,99782.73
2018-12-02T03:04:46.474Z,99785.73
2018-12-02T03:07:16.647Z,99789.40
2018-12-02T03:09:47.213Z,99786.43
2018-12-02T03:12:17.249Z,99788.75
2018-12-02T03:14:47.398Z,99789.75
2018-12-02T03:17:18.189Z,99776.86
2018-12-02T03:19:49.503Z,99760.75
2018-12-02T03:22:20.608Z,99760.26
2018-12-02T03:24:51.328Z,99766.72
2018-12-02T03:27:21.441Z,99756.94
2018-12-02T03:29:52.162Z,99754.97
2018-12-02T03:32:23.124Z,99760.17
2018-12-02T03:34:54.299Z,99763.93
2018-12-02T03:37:25.087Z,99757.50
2018-12-02T03:39:55.160Z,99762.46
2018-12-02T03:42:26.404Z,99756.17
2018-12-02T03:44:56.863Z,99749.71
2018-12-02T03:47:27.030Z,99752.23
2018-12-02T03:49:58.414Z,99744.84
2018-12-02T03:52:30.265Z,99746.62
2018-12-02T03:55:00.292Z,99736.52
2018-12-02T03:57:30.498Z,99735.38
2018-12-02T04:00:01.262Z,99720.78
2018-12-02T04:02:32.001Z,99712.14
2018-12-02T04:05:02.849Z,99699.13
2018-12-02T04:07:33.656Z,99693.61
2018-12-02T04:10:06.847Z,99680.12
2018-12-02T04:12:36.878Z,99677.42
2018-12-02T04:15:12.962Z,99670.88
2018-12-02T04:17:43.616Z,99669.05
2018-12-02T04:20:16.801Z,99681.50
2018-12-02T04:22:48.142Z,99677.75
2018-12-02T04:25:33.816Z,99682.81
2018-12-02T04:28:04.525Z,99683.81
2018-12-02T04:30:36.136Z,99688.05
2018-12-02T04:33:07.766Z,99694.53
2018-12-02T04:35:39.026Z,99694.06
2018-12-02T04:38:09.655Z,99697.91
2018-12-02T04:40:41.414Z,99697.52
2018-12-02T04:43:12.562Z,99684.48
2018-12-02T04:45:43.910Z,99690.44
2018-12-02T04:48:14.723Z,99688.77
2018-12-02T04:50:45.357Z,99682.59
2018-12-02T04:53:15.508Z,99683.36
2018-12-02T04:55:46.220Z,99667.56
2018-12-02T04:58:17.772Z,99667.66
2018-12-02T05:00:47.841Z,99665.32
2018-12-02T05:03:19.790Z,99657.84
2018-12-02T05:05:50.602Z,99632.73
2018-12-02T05:08:20.622Z,99626.17
2018-12-02T05:10:51.618Z,99628.48
2018-12-02T05:13:22.749Z,99621.35
2018-12-02T05:15:54.502Z,99611.67
2018-12-02T05:18:25.411Z,99600.41
2018-12-02T05:21:07.210Z,99615.45
2018-12-02T05:23:37.972Z,99602.63
2018-12-02T05:26:09.528Z,99596.34
2018-12-02T05:28:39.611Z,99600.03
2018-12-02T05:31:10.196Z,99591.17
2018-12-02T05:33:40.271Z,99585.62
2018-12-02T05:36:10.791Z,99580.16
2018-12-02T05:38:41.857Z,99582.84
2018-12-02T05:41:11.842Z,99577.39
2018-12-02T05:43:42.381Z,99575.38
2018-12-02T05:46:12.461Z,99578.52
2018-12-02T05:48:43.403Z,99579.06
2018-12-02T05:51:13.439Z,99583.22
2018-12-02T05:53:44.161Z,99576.95
2018-12-02T05:56:15.073Z,99569.72
2018-12-02T05:58:45.269Z,99570.73
2018-12-02T06:01:15.875Z,99571.48
2018-12-02T06:03:45.842Z,99562.44
2018-12-02T06:06:15.943Z,99563.27
2018-12-02T06:08:46.074Z,99565.47
2018-12-02T06:11:17.995Z,99558.09
2018-12-02T06:13:48.114Z,99557.17
2018-12-02T06:16:20.966Z,99552.19
2018-12-02T06:18:51.819Z,99548.75
2018-12-02T06:21:24.221Z,99542.38
2018-12-02T06:23:55.441Z,99533.99
2018-12-02T06:26:26.590Z,99534.81
2018-12-02T06:28:58.173Z,99528.63
2018-12-02T06:31:29.321Z,99522.34
2018-12-02T06:33:59.634Z,99521.87
2018-12-02T06:36:31.702Z,99509.70
2018-12-02T06:39:02.226Z,99503.44
2018-12-02T06:41:34.113Z,99505.55
2018-12-02T06:44:04.366Z,99504.63
2018-12-02T06:46:35.386Z,99495.02
2018-12-02T06:49:06.447Z,99495.86
2018-12-02T06:51:36.977Z,99495.11
2018-12-02T06:54:07.243Z,99492.61
2018-12-02T06:56:46.340Z,99490.50
2018-12-02T06:59:30.929Z,99495.67
2018-12-02T07:02:37.715Z,99488.19
2018-12-02T07:05:14.889Z,99491.05
2018-12-02T07:07:46.266Z,99491.97
2018-12-02T07:10:16.345Z,99487.25
2018-12-02T07:12:47.188Z,99486.44
2018-12-02T07:15:17.354Z,99482.45
2018-12-02T07:17:51.514Z,99481.34
2018-12-02T07:20:27.926Z,99480.61
2018-12-02T07:23:04.521Z,99477.83
2018-12-02T07:25:39.202Z,99476.19
2018-12-02T07:28:09.257Z,99476.36
2018-12-02T07:30:39.545Z,99476.36
2018-12-02T07:33:10.405Z,99472.85
2018-12-02T07:35:41.115Z,99470.38
2018-12-02T07:38:53.739Z,99472.02
2018-12-02T07:41:25.057Z,99461.97
2018-12-02T07:43:56.941Z,99468.33
2018-12-02T07:46:27.058Z,99459.56
2018-12-02T07:48:58.550Z,99455.59
2018-12-02T07:51:28.731Z,99455.40
2018-12-02T07:53:58.899Z,99463.25
2018-12-02T07:56:30.968Z,99454.48
2018-12-02T07:59:04.268Z,99451.91
2018-12-02T08:01:36.404Z,99456.32
2018-12-02T08:04:07.288Z,99449.58
2018-12-02T08:06:38.587Z,99448.57
2018-12-02T08:09:09.671Z,99444.85
2018-12-02T08:11:40.387Z,99434.87
2018-12-02T08:14:12.344Z,99433.77
2018-12-02T08:16:43.114Z,99437.17
2018-12-02T08:19:15.353Z,99431.27
2018-12-02T08:21:45.985Z,99427.65
2018-12-02T08:24:17.286Z,99420.84
2018-12-02T08:26:48.825Z,99432.38
2018-12-02T08:29:18.866Z,99425.41
2018-12-02T08:31:49.652Z,99431.11
2018-12-02T08:34:20.804Z,99425.47
2018-12-02T08:36:51.388Z,99421.62
2018-12-02T08:39:23.216Z,99415.25
2018-12-02T08:41:54.214Z,99414.03
2018-12-02T08:44:25.521Z,99407.69
2018-12-02T08:46:56.347Z,99410.80
2018-12-02T08:49:27.627Z,99407.22
2018-12-02T08:51:59.006Z,99402.97
2018-12-02T08:54:29.086Z,99405.55
2018-12-02T08:57:00.496Z,99405.93
2018-12-02T08:59:31.360Z,99398.89
2018-12-02T09:02:01.535Z,99396.59
2018-12-02T09:04:31.628Z,99392.34
2018-12-02T09:07:03.737Z,99393.53
2018-12-02T09:09:36.792Z,99392.99
2018-12-02T09:12:08.255Z,99392.26
2018-12-02T09:14:39.467Z,99394.56
2018-12-02T09:17:10.537Z,99389.48
2018-12-02T09:19:40.703Z,99381.52
2018-12-02T09:22:11.578Z,99381.70
2018-12-02T09:24:41.549Z,99377.28
2018-12-02T09:27:12.366Z,99377.28
2018-12-02T09:29:43.379Z,99385.58
2018-12-02T09:32:14.687Z,99384.47
2018-12-02T09:34:44.793Z,99375.43
2018-12-02T09:37:15.751Z,99378.08
2018-12-02T09:39:45.741Z,99376.80
2018-12-02T09:42:15.946Z,99370.44
2018-12-02T09:44:46.911Z,99370.97
2018-12-02T09:47:17.885Z,99360.63
2018-12-02T09:49:48.465Z,99366.55
2018-12-02T09:52:18.551Z,99355.44
2018-12-02T09:54:49.863Z,99352.67
2018-12-02T09:57:21.929Z,99351.86
2018-12-02T09:59:52.466Z,99345.94
2018-12-02T10:02:22.441Z,99343.05
2018-12-02T10:04:53.745Z,99333.69
2018-12-02T10:07:24.211Z,99327.97
2018-12-02T10:09:54.900Z,99323.78
2018-12-02T10:12:26.423Z,99325.41
2018-12-02T10:14:56.486Z,99319.32
2018-12-02T10:17:26.609Z,99321.47
2018-12-02T10:19:56.802Z,99318.34
2018-12-02T10:22:28.376Z,99315.31
2018-12-02T10:24:58.477Z,99311.59
2018-12-02T10:27:28.705Z,99301.46
2018-12-02T10:29:59.271Z,99301.08
2018-12-02T10:32:29.467Z,99309.86
2018-12-02T10:35:00.323Z,99300.06
2018-12-02T10:37:31.021Z,99303.44
2018-12-02T10:40:01.685Z,99299.48
2018-12-02T10:42:31.893Z,99298.94
2018-12-02T10:45:03.577Z,99289.44
2018-12-02T10:47:33.775Z,99286.27
2018-12-02T10:50:05.076Z,99279.86
2018-12-02T10:52:35.755Z,99273.33
2018-12-02T10:55:09.507Z,99267.58
2018-12-02T10:57:39.717Z,99257.97
2018-12-02T11:00:16.656Z,99262.77
2018-12-02T11:02:47.402Z,99255.72
2018-12-02T11:05:18.702Z,99264.55
2018-12-02T11:07:48.826Z,99258.24
2018-12-02T11:10:19.411Z,99250.31
2018-12-02T11:12:50.767Z,99253.17
2018-12-02T11:15:23.266Z,99245.56
2018-12-02T11:17:53.430Z,99241.37
2018-12-02T11:20:24.038Z,99234.58
2018-12-02T11:22:54.956Z,99233.44
2018-12-02T11:25:24.960Z,99237.34
2018-12-02T11:27:55.449Z,99229.94
2018-12-02T11:30:25.625Z,99227.24
2018-12-02T11:32:56.509Z,99231.17
2018-12-02T11:35:27.615Z,99230.59
2018-12-02T11:37:57.749Z,99227.24
2018-12-02T11:40:29.217Z,99223.09
2018-12-02T11:43:00.302Z,99221.22
2018-12-02T11:45:30.299Z,99215.28
2018-12-02T11:48:00.940Z,99213.23
2018-12-02T11:50:34.282Z,99212.53
2018-12-02T11:53:04.543Z,99209.41
2018-12-02T11:55:35.782Z,99207.52
2018-12-02T11:58:06.225Z,99210.70
2018-12-02T12:00:40.061Z,99209.96
2018-12-02T12:03:10.177Z,99202.47
2018-12-02T12:05:42.031Z,99194.05
2018-12-02T12:08:13.299Z,99198.46
2018-12-02T12:10:43.739Z,99200.73
2018-12-02T12:13:14.463Z,99199.06
2018-12-02T12:15:45.366Z,99189.95
2018-12-02T12:18:16.131Z,99184.23
2018-12-02T12:20:46.872Z,99182.67
2018-12-02T12:23:20.297Z,99181.82
2018-12-02T12:25:50.444Z,99182.62
2018-12-02T12:28:21.539Z,99187.58
2018-12-02T12:30:51.558Z,99179.61
2018-12-02T12:33:21.741Z,99186.23
2018-12-02T12:35:52.749Z,99182.14
2018-12-02T12:38:23.994Z,99180.42
2018-12-02T12:40:54.166Z,99177.23
2018-12-02T12:43:28.364Z,99177.18
2018-12-02T12:45:59.559Z,99174.38
2018-12-02T12:48:31.455Z,99173.95
2018-12-02T12:51:03.091Z,99167.05
2018-12-02T12:53:33.215Z,99169.20
2018-12-02T12:56:04.807Z,99173.92
2018-12-02T12:58:34.909Z,99167.20
2018-12-02T13:01:05.089Z,99171.78
2018-12-02T13:03:35.624Z,99171.19
2018-12-02T13:06:06.975Z,99166.12
2018-12-02T13:08:36.929Z,99164.67
2018-12-02T13:11:07.210Z,99163.27
2018-12-02T13:13:38.519Z,99162.02
2018-12-02T13:16:09.549Z,99160.25
2018-12-02T13:18:40.378Z,99152.64
2018-12-02T13:21:11.174Z,99150.53
2018-12-02T13:23:41.827Z,99152.80
2018-12-02T13:26:13.388Z,99161.09
2018-12-02T13:28:43.645Z,99156.28
2018-12-02T13:31:14.895Z,99160.11
2018-12-02T13:33:45.076Z,99154.94
2018-12-02T13:36:15.925Z,99152.39
2018-12-02T13:38:46.322Z,99148.25
2018-12-02T13:41:16.548Z,99154.29
2018-12-02T13:43:48.286Z,99155.89
2018-12-02T13:46:17.344Z,99150.52
2018-12-02T13:48:47.627Z,99147.93
2018-12-02T13:51:17.816Z,99150.67
2018-12-02T13:53:53.342Z,99149.56
2018-12-02T13:56:24.078Z,99147.09
2018-12-02T13:58:54.732Z,99146.75
2018-12-02T14:01:24.937Z,99147.72
2018-12-02T14:03:55.097Z,99142.39
2018-12-02T14:06:25.902Z,99139.53
2018-12-02T14:08:56.727Z,99148.83
2018-12-02T14:11:26.867Z,99150.12
2018-12-02T14:13:57.865Z,99154.41
2018-12-02T14:16:37.541Z,99151.27
2018-12-02T14:19:11.805Z,99148.09
2018-12-02T14:21:42.741Z,99153.27
2018-12-02T14:24:14.441Z,99155.48
2018-12-02T14:26:47.158Z,99157.44
2018-12-02T14:29:21.232Z,99164.55
2018-12-02T14:31:54.588Z,99161.00
2018-12-02T14:34:25.451Z,99166.21
2018-12-02T14:36:55.564Z,99164.66
2018-12-02T14:39:26.266Z,99163.63
2018-12-02T14:41:56.382Z,99166.33
2018-12-02T14:44:26.966Z,99165.28
2018-12-02T14:46:57.646Z,99168.69
2018-12-02T14:49:28.538Z,99163.36
2018-12-02T14:52:00.571Z,99164.28
2018-12-02T14:54:32.130Z,99163.61
2018-12-02T14:57:02.250Z,99166.34
2018-12-02T14:59:32.433Z,99163.39
2018-12-02T15:02:02.594Z,99160.50
2018-12-02T15:04:36.340Z,99163.20
2018-12-02T15:07:07.138Z,99162.86
2018-12-02T15:09:37.241Z,99165.63
2018-12-02T15:12:07.894Z,99172.36
2018-12-02T15:14:39.174Z,99173.73
2018-12-02T15:17:09.682Z,99172.95
2018-12-02T15:19:39.749Z,99170.36
2018-12-02T15:22:11.489Z,99169.57
2018-12-02T15:24:42.313Z,99176.44
2018-12-02T15:27:13.334Z,99181.27
2018-12-02T15:29:43.594Z,99182.55
2018-12-02T15:32:13.750Z,99184.36
2018-12-02T15:34:44.503Z,99182.70
2018-12-02T15:37:15.349Z,99187.20
2018-12-02T15:39:45.852Z,99191.59
2018-12-02T15:42:17.997Z,99183.14
2018-12-02T15:44:49.324Z,99191.73
2018-12-02T15:47:19.479Z,99183.42
2018-12-02T15:49:49.636Z,99192.63
2018-12-02T15:52:19.784Z,99194.42
2018-12-02T15:54:49.977Z,99199.00
2018-12-02T15:57:21.423Z,99199.25
2018-12-02T15:59:53.589Z,99195.05
2018-12-02T16:02:23.825Z,99199.84
2018-12-02T16:04:54.558Z,99202.70
2018-12-02T16:07:25.832Z,99203.75
2018-12-02T16:09:56.069Z,99205.69
2018-12-02T16:12:27.129Z,99207.12
2018-12-02T16:14:58.122Z,99212.19
2018-12-02T16:17:29.038Z,99201.31
2018-12-02T16:20:00.293Z,99203.11
2018-12-02T16:22:30.394Z,99208.86
2018-12-02T16:25:00.443Z,99208.31
2018-12-02T16:27:31.095Z,99197.60
2018-12-02T16:30:01.915Z,99207.30
2018-12-02T16:32:32.028Z,99203.89
2018-12-02T16:35:03.385Z,99207.99
2018-12-02T16:37:34.018Z,99207.86
2018-12-02T16:40:05.069Z,99210.50
2018-12-02T16:42:35.965Z,99206.70
2018-12-02T16:45:08.309Z,99206.93
2018-12-02T16:47:39.383Z,99216.37
2018-12-02T16:50:47.518Z,99219.45
2018-12-02T16:53:26.635Z,99222.60
2018-12-02T16:56:01.641Z,99226.16
2018-12-02T16:59:44.665Z,99228.88
2018-12-02T17:02:14.742Z,99234.54
2018-12-02T17:04:45.527Z,99239.84
2018-12-02T17:07:16.184Z,99239.89
2018-12-02T17:09:49.159Z,99241.80
2018-12-02T17:12:22.403Z,99246.02
2018-12-02T17:14:52.600Z,99246.06
2018-12-02T17:17:22.770Z,99241.45
2018-12-02T17:19:54.571Z,99242.06
2018-12-02T17:22:24.653Z,99254.55
2018-12-02T17:24:56.055Z,99255.72
2018-12-02T17:27:26.609Z,99258.91
2018-12-02T17:29:57.432Z,99265.06
2018-12-02T17:32:27.524Z,99260.23
2018-12-02T17:34:58.398Z,99266.97
2018-12-02T17:37:29.272Z,99266.03
2018-12-02T17:40:00.258Z,99273.81
2018-12-02T17:42:30.442Z,99274.22
2018-12-02T17:45:00.740Z,99275.05
2018-12-02T17:47:32.189Z,99274.59
2018-12-02T17:50:03.349Z,99278.95
2018-12-02T17:52:34.026Z,99281.91
2018-12-02T17:55:04.950Z,99290.43
2018-12-02T17:57:35.521Z,99278.49
2018-12-02T18:00:11.433Z,99284.50
2018-12-02T18:02:42.709Z,99289.82
2018-12-02T18:05:16.506Z,99291.36
2018-12-02T18:07:48.247Z,99291.72
2018-12-02T18:10:18.430Z,99296.67
2018-12-02T18:12:50.803Z,99295.25
2018-12-02T18:15:21.759Z,99299.14
2018-12-02T18:17:52.582Z,99293.58
2018-12-02T18:20:25.258Z,99296.30
2018-12-02T18:22:55.466Z,99293.58
2018-12-02T18:25:26.535Z,99299.95
2018-12-02T18:27:56.515Z,99298.89
2018-12-02T18:30:27.964Z,99306.70
2018-12-02T18:33:00.543Z,99299.59
2018-12-02T18:35:42.485Z,99306.08
2018-12-02T18:38:15.908Z,99301.38
2018-12-02T18:40:57.462Z,99297.62
2018-12-02T18:43:27.895Z,99300.09
2018-12-02T18:45:59.690Z,99294.53
2018-12-02T18:48:29.817Z,99297.25
2018-12-02T18:51:00.138Z,99297.16
2018-12-02T18:53:31.075Z,99297.25
2018-12-02T18:56:01.160Z,99309.30
2018-12-02T18:58:32.438Z,99304.70
2018-12-02T19:01:03.045Z,99300.69
2018-12-02T19:03:33.760Z,99307.73
2018-12-02T19:06:04.036Z,99304.66
2018-12-02T19:08:35.107Z,99308.41
2018-12-02T19:11:06.822Z,99306.36
2018-12-02T19:13:43.255Z,99303.08
2018-12-02T19:16:09.027Z,99323.09
2018-12-02T19:18:40.255Z,99318.73
2018-12-02T19:21:18.246Z,99320.34
2018-12-02T19:23:49.062Z,99323.92
2018-12-02T19:26:19.773Z,99328.73
2018-12-02T19:28:50.014Z,99333.20
2018-12-02T19:31:20.831Z,99322.49
2018-12-02T19:33:52.602Z,99317.75
2018-12-02T19:36:31.956Z,99321.48
2018-12-02T19:39:02.182Z,99324.33
2018-12-02T19:41:32.267Z,99325.52
2018-12-02T19:44:03.029Z,99329.03
2018-12-02T19:46:33.091Z,99337.45
2018-12-02T19:49:03.803Z,99328.80
2018-12-02T19:51:35.926Z,99335.05
2018-12-02T19:54:07.994Z,99337.28
2018-12-02T19:56:39.267Z,99329.94
2018-12-02T19:59:09.388Z,99335.26
2018-12-02T20:01:39.521Z,99334.09
2018-12-02T20:04:27.624Z,99335.14
2018-12-02T20:06:57.728Z,99339.05
2018-12-02T20:09:28.878Z,99329.85
2018-12-02T20:11:59.860Z,99338.01
2018-12-02T20:14:30.427Z,99337.77
2018-12-02T20:17:07.478Z,99339.67
2018-12-02T20:19:46.263Z,99341.59
2018-12-02T20:22:48.741Z,99337.77
2018-12-02T20:25:44.944Z,99330.59
2018-12-02T20:28:51.826Z,99333.09
2018-12-02T20:31:52.084Z,99333.80
2018-12-02T20:34:23.571Z,99346.44
2018-12-02T20:37:22.340Z,99341.12
2018-12-02T20:39:53.619Z,99338.89
2018-12-02T20:42:24.125Z,99334.65
2018-12-02T20:44:55.316Z,99336.81
2018-12-02T20:47:26.874Z,99334.08
2018-12-02T20:49:57.728Z,99339.04
2018-12-02T20:52:28.179Z,99338.09
2018-12-02T20:54:59.038Z,99339.84
2018-12-02T20:57:30.589Z,99342.00
2018-12-02T21:00:01.975Z,99347.69
2018-12-02T21:02:33.234Z,99348.88
2018-12-02T21:05:03.973Z,99345.53
2018-12-02T21:07:34.849Z,99346.96
2018-12-02T21:10:06.117Z,99340.47
2018-12-02T21:12:36.710Z,99340.96
2018-12-02T21:15:11.307Z,99345.78
2018-12-02T21:17:42.848Z,99344.70
2018-12-02T21:20:14.039Z,99339.03
2018-12-02T21:22:44.135Z,99344.70
2018-12-02T21:25:16.381Z,99344.09
2018-12-02T21:27:47.033Z,99342.70
2018-12-02T21:30:25.558Z,99345.30
2018-12-02T21:32:55.673Z,99346.14
2018-12-02T21:35:25.808Z,99353.81
2018-12-02T21:37:57.135Z,99349.66
2018-12-02T21:40:27.266Z,99359.13
2018-12-02T21:42:57.443Z,99354.59
2018-12-02T21:45:27.609Z,99352.42
2018-12-02T21:47:58.054Z,99345.34
2018-12-02T21:50:30.911Z,99347.30
2018-12-02T21:53:02.181Z,99338.59
2018-12-02T21:55:32.345Z,99345.11
2018-12-02T21:58:02.490Z,99341.35
2018-12-02T22:00:38.288Z,99343.14
2018-12-02T22:03:08.374Z,99345.95
2018-12-02T22:05:39.034Z,99339.67
2018-12-02T22:08:10.818Z,99337.70
2018-12-02T22:10:40.899Z,99332.36
2018-12-02T22:13:11.818Z,99329.19
2018-12-02T22:15:43.650Z,99336.42
2018-12-02T22:18:14.387Z,99335.37
2018-12-02T22:20:46.682Z,99339.19
2018-12-02T22:23:16.917Z,99328.94
2018-12-02T22:25:47.071Z,99333.75
2018-12-02T22:28:17.904Z,99335.28
2018-12-02T22:30:48.183Z,99338.86
2018-12-02T22:33:18.923Z,99342.52
2018-12-02T22:35:50.156Z,99332.72
2018-12-02T22:38:22.343Z,99329.85
2018-12-02T22:40:54.200Z,99332.02
2018-12-02T22:43:24.914Z,99328.47
2018-12-02T22:45:55.757Z,99331.00
2018-12-02T22:48:26.947Z,99323.17
2018-12-02T22:50:57.862Z,99324.84
2018-12-02T22:53:28.461Z,99325.79
2018-12-02T22:55:59.472Z,99328.98
2018-12-02T22:58:29.626Z,99327.36
2018-12-02T23:01:07.183Z,99326.67
2018-12-02T23:03:38.433Z,99327.48
2018-12-02T23:06:09.481Z,99331.21
2018-12-02T23:08:39.773Z,99331.92
2018-12-02T23:11:10.325Z,99318.40
2018-12-02T23:13:40.606Z,99322.41
2018-12-02T23:16:11.070Z,99318.88
2018-12-02T23:18:42.762Z,99316.16
2018-12-02T23:21:12.961Z,99323.02
2018-12-02T23:23:43.021Z,99320.55
2018-12-02T23:26:13.744Z,99313.80
2018-12-02T23:28:43.764Z,99316.05
2018-12-02T23:31:14.072Z,99312.84
2018-12-02T23:33:44.473Z,99314.02
2018-12-02T23:36:14.895Z,99314.61
2018-12-02T23:38:45.084Z,99323.80
2018-12-02T23:41:15.394Z,99325.36
2018-12-02T23:43:45.702Z,99326.66
2018-12-02T23:46:16.216Z,99329.81
2018-12-02T23:48:46.581Z,99326.66
2018-12-02T23:51:16.806Z,99331.00
2018-12-02T23:53:46.970Z,99330.94
2018-12-02T23:56:17.517Z,99332.19
2018-12-02T23:58:47.902Z,99332.48
